sensor_id;sensor_type;location;lat;lon;timestamp;temperature;humidity
12436;DHT22;6282;51.440;6.938;2024-03-08T00:00:16;4.90;99.90
12436;DHT22;6282;51.440;6.938;2024-03-08T00:02:46;4.80;99.90
12436;DHT22;6282;51.440;6.938;2024-03-08T00:05:14;4.90;99.90
12436;DHT22;6282;51.440;6.938;2024-03-08T00:07:41;4.90;99.90
12436;DHT22;6282;51.440;6.938;2024-03-08T00:10:10;4.90;99.90
12436;DHT22;6282;51.440;6.938;2024-03-08T00:12:37;4.90;99.90
12436;DHT22;6282;51.440;6.938;2024-03-08T00:15:08;4.80;99.90
12436;DHT22;6282;51.440;6.938;2024-03-08T00:17:35;4.90;99.90
12436;DHT22;6282;51.440;6.938;2024-03-08T00:20:03;4.80;99.90
12436;DHT22;6282;51.440;6.938;2024-03-08T00:22:33;4.70;99.90
12436;DHT22;6282;51.440;6.938;2024-03-08T00:25:01;4.70;99.90
12436;DHT22;6282;51.440;6.938;2024-03-08T00:27:28;4.80;99.90
12436;DHT22;6282;51.440;6.938;2024-03-08T00:29:56;4.80;99.90
12436;DHT22;6282;51.440;6.938;2024-03-08T00:32:23;4.80;99.90
12436;DHT22;6282;51.440;6.938;2024-03-08T00:34:50;4.70;99.90
12436;DHT22;6282;51.440;6.938;2024-03-08T00:37:18;4.80;99.90
12436;DHT22;6282;51.440;6.938;2024-03-08T00:39:45;4.80;99.90
12436;DHT22;6282;51.440;6.938;2024-03-08T00:42:12;4.80;99.90
12436;DHT22;6282;51.440;6.938;2024-03-08T00:44:39;4.80;99.90
12436;DHT22;6282;51.440;6.938;2024-03-08T00:47:06;4.80;99.90
12436;DHT22;6282;51.440;6.938;2024-03-08T00:49:33;4.60;99.90
12436;DHT22;6282;51.440;6.938;2024-03-08T00:51:59;4.60;99.90
12436;DHT22;6282;51.440;6.938;2024-03-08T00:54:28;4.70;99.90
12436;DHT22;6282;51.440;6.938;2024-03-08T00:56:55;4.70;99.90
12436;DHT22;6282;51.440;6.938;2024-03-08T00:59:22;4.80;1.00
12436;DHT22;6282;51.440;6.938;2024-03-08T01:01:49;4.90;1.00
12436;DHT22;6282;51.440;6.938;2024-03-08T01:04:16;4.70;1.00
12436;DHT22;6282;51.440;6.938;2024-03-08T01:06:43;4.70;1.00
12436;DHT22;6282;51.440;6.938;2024-03-08T01:09:12;4.60;99.90
12436;DHT22;6282;51.440;6.938;2024-03-08T01:11:41;4.60;99.90
12436;DHT22;6282;51.440;6.938;2024-03-08T01:14:08;4.50;99.90
12436;DHT22;6282;51.440;6.938;2024-03-08T01:16:35;4.50;99.90
12436;DHT22;6282;51.440;6.938;2024-03-08T01:19:02;4.70;1.00
12436;DHT22;6282;51.440;6.938;2024-03-08T01:21:28;4.40;99.90
12436;DHT22;6282;51.440;6.938;2024-03-08T01:23:55;4.50;1.00
12436;DHT22;6282;51.440;6.938;2024-03-08T01:26:22;4.40;99.90
12436;DHT22;6282;51.440;6.938;2024-03-08T01:28:50;4.50;1.00
12436;DHT22;6282;51.440;6.938;2024-03-08T01:31:17;4.50;1.00
12436;DHT22;6282;51.440;6.938;2024-03-08T01:33:44;4.50;1.00
12436;DHT22;6282;51.440;6.938;2024-03-08T01:36:10;4.40;1.00
12436;DHT22;6282;51.440;6.938;2024-03-08T01:38:40;4.40;1.00
12436;DHT22;6282;51.440;6.938;2024-03-08T01:41:07;4.50;1.00
12436;DHT22;6282;51.440;6.938;2024-03-08T01:43:34;4.60;1.00
12436;DHT22;6282;51.440;6.938;2024-03-08T01:46:03;4.60;1.00
12436;DHT22;6282;51.440;6.938;2024-03-08T01:48:30;4.60;1.00
12436;DHT22;6282;51.440;6.938;2024-03-08T01:50:57;4.60;1.00
12436;DHT22;6282;51.440;6.938;2024-03-08T01:53:26;4.60;1.00
12436;DHT22;6282;51.440;6.938;2024-03-08T01:55:56;4.60;13.00
12436;DHT22;6282;51.440;6.938;2024-03-08T01:58:23;4.70;99.90
12436;DHT22;6282;51.440;6.938;2024-03-08T02:00:52;4.60;99.90
12436;DHT22;6282;51.440;6.938;2024-03-08T02:03:21;4.70;99.90
12436;DHT22;6282;51.440;6.938;2024-03-08T02:05:49;4.70;99.90
12436;DHT22;6282;51.440;6.938;2024-03-08T02:08:17;4.60;99.90
12436;DHT22;6282;51.440;6.938;2024-03-08T02:10:45;4.90;99.90
12436;DHT22;6282;51.440;6.938;2024-03-08T02:13:12;4.80;99.90
12436;DHT22;6282;51.440;6.938;2024-03-08T02:15:53;4.60;99.90
12436;DHT22;6282;51.440;6.938;2024-03-08T02:18:22;4.60;99.90
12436;DHT22;6282;51.440;6.938;2024-03-08T02:20:51;4.80;99.90
12436;DHT22;6282;51.440;6.938;2024-03-08T02:23:18;4.80;99.90
12436;DHT22;6282;51.440;6.938;2024-03-08T02:25:45;4.60;99.90
12436;DHT22;6282;51.440;6.938;2024-03-08T02:28:12;4.50;99.90
12436;DHT22;6282;51.440;6.938;2024-03-08T02:30:40;4.30;99.90
12436;DHT22;6282;51.440;6.938;2024-03-08T02:33:07;4.50;99.90
12436;DHT22;6282;51.440;6.938;2024-03-08T02:35:35;4.50;99.90
12436;DHT22;6282;51.440;6.938;2024-03-08T02:38:04;4.40;99.90
12436;DHT22;6282;51.440;6.938;2024-03-08T02:40:30;4.30;99.90
12436;DHT22;6282;51.440;6.938;2024-03-08T02:42:57;4.50;99.90
12436;DHT22;6282;51.440;6.938;2024-03-08T02:45:24;4.40;99.90
12436;DHT22;6282;51.440;6.938;2024-03-08T02:47:51;4.30;99.90
12436;DHT22;6282;51.440;6.938;2024-03-08T02:50:18;4.20;99.90
12436;DHT22;6282;51.440;6.938;2024-03-08T02:52:45;4.10;99.90
12436;DHT22;6282;51.440;6.938;2024-03-08T02:55:14;4.20;99.90
12436;DHT22;6282;51.440;6.938;2024-03-08T02:57:41;4.00;99.90
12436;DHT22;6282;51.440;6.938;2024-03-08T03:00:10;4.10;99.90
12436;DHT22;6282;51.440;6.938;2024-03-08T03:02:37;4.30;99.90
12436;DHT22;6282;51.440;6.938;2024-03-08T03:05:04;4.20;99.90
12436;DHT22;6282;51.440;6.938;2024-03-08T03:07:32;4.30;99.90
12436;DHT22;6282;51.440;6.938;2024-03-08T03:09:59;4.30;99.90
12436;DHT22;6282;51.440;6.938;2024-03-08T03:12:28;4.30;99.90
12436;DHT22;6282;51.440;6.938;2024-03-08T03:14:55;4.40;99.90
12436;DHT22;6282;51.440;6.938;2024-03-08T03:17:22;4.60;99.90
12436;DHT22;6282;51.440;6.938;2024-03-08T03:19:49;4.40;99.90
12436;DHT22;6282;51.440;6.938;2024-03-08T03:22:17;4.10;99.90
12436;DHT22;6282;51.440;6.938;2024-03-08T03:24:44;4.20;99.90
12436;DHT22;6282;51.440;6.938;2024-03-08T03:27:11;4.20;99.90
12436;DHT22;6282;51.440;6.938;2024-03-08T03:29:40;4.30;99.90
12436;DHT22;6282;51.440;6.938;2024-03-08T03:32:07;4.30;99.90
12436;DHT22;6282;51.440;6.938;2024-03-08T03:34:34;4.10;99.90
12436;DHT22;6282;51.440;6.938;2024-03-08T03:37:02;4.10;99.90
12436;DHT22;6282;51.440;6.938;2024-03-08T03:39:29;4.20;99.90
12436;DHT22;6282;51.440;6.938;2024-03-08T03:41:57;4.00;99.90
12436;DHT22;6282;51.440;6.938;2024-03-08T03:44:24;3.80;99.90
12436;DHT22;6282;51.440;6.938;2024-03-08T03:46:52;3.80;99.90
12436;DHT22;6282;51.440;6.938;2024-03-08T03:49:19;3.90;99.90
12436;DHT22;6282;51.440;6.938;2024-03-08T03:51:46;4.00;99.90
12436;DHT22;6282;51.440;6.938;2024-03-08T03:54:13;4.20;99.90
12436;DHT22;6282;51.440;6.938;2024-03-08T03:56:40;4.00;99.90
12436;DHT22;6282;51.440;6.938;2024-03-08T03:59:07;4.10;99.90
12436;DHT22;6282;51.440;6.938;2024-03-08T04:01:34;4.10;99.90
12436;DHT22;6282;51.440;6.938;2024-03-08T04:04:02;4.10;99.90
12436;DHT22;6282;51.440;6.938;2024-03-08T04:06:29;4.20;99.90
12436;DHT22;6282;51.440;6.938;2024-03-08T04:08:56;4.00;99.90
12436;DHT22;6282;51.440;6.938;2024-03-08T04:11:22;4.00;99.90
12436;DHT22;6282;51.440;6.938;2024-03-08T04:13:49;4.00;99.90
12436;DHT22;6282;51.440;6.938;2024-03-08T04:16:16;3.90;99.90
12436;DHT22;6282;51.440;6.938;2024-03-08T04:18:44;4.10;99.90
12436;DHT22;6282;51.440;6.938;2024-03-08T04:21:12;3.90;99.90
12436;DHT22;6282;51.440;6.938;2024-03-08T04:23:39;4.00;99.90
12436;DHT22;6282;51.440;6.938;2024-03-08T04:26:06;4.10;99.90
12436;DHT22;6282;51.440;6.938;2024-03-08T04:28:34;4.10;99.90
12436;DHT22;6282;51.440;6.938;2024-03-08T04:31:03;4.10;99.90
12436;DHT22;6282;51.440;6.938;2024-03-08T04:33:29;3.90;99.90
12436;DHT22;6282;51.440;6.938;2024-03-08T04:35:56;3.90;99.90
12436;DHT22;6282;51.440;6.938;2024-03-08T04:38:24;3.90;99.90
12436;DHT22;6282;51.440;6.938;2024-03-08T04:40:51;3.80;99.90
12436;DHT22;6282;51.440;6.938;2024-03-08T04:43:19;3.90;99.90
12436;DHT22;6282;51.440;6.938;2024-03-08T04:45:46;3.90;99.90
12436;DHT22;6282;51.440;6.938;2024-03-08T04:48:14;3.70;99.90
12436;DHT22;6282;51.440;6.938;2024-03-08T04:50:41;3.80;99.90
12436;DHT22;6282;51.440;6.938;2024-03-08T04:53:07;3.90;99.90
12436;DHT22;6282;51.440;6.938;2024-03-08T04:55:36;3.90;99.90
12436;DHT22;6282;51.440;6.938;2024-03-08T04:58:03;4.00;99.90
12436;DHT22;6282;51.440;6.938;2024-03-08T05:00:31;4.30;99.90
12436;DHT22;6282;51.440;6.938;2024-03-08T05:02:58;4.30;99.90
12436;DHT22;6282;51.440;6.938;2024-03-08T05:05:25;4.20;99.90
12436;DHT22;6282;51.440;6.938;2024-03-08T05:07:54;4.20;99.90
12436;DHT22;6282;51.440;6.938;2024-03-08T05:10:20;4.10;99.90
12436;DHT22;6282;51.440;6.938;2024-03-08T05:12:48;4.00;99.90
12436;DHT22;6282;51.440;6.938;2024-03-08T05:15:15;4.00;99.90
12436;DHT22;6282;51.440;6.938;2024-03-08T05:17:42;4.10;99.90
12436;DHT22;6282;51.440;6.938;2024-03-08T05:20:10;4.30;99.90
12436;DHT22;6282;51.440;6.938;2024-03-08T05:22:38;4.20;99.90
12436;DHT22;6282;51.440;6.938;2024-03-08T05:25:06;4.30;99.90
12436;DHT22;6282;51.440;6.938;2024-03-08T05:27:34;4.30;99.90
12436;DHT22;6282;51.440;6.938;2024-03-08T05:30:03;4.10;99.90
12436;DHT22;6282;51.440;6.938;2024-03-08T05:32:30;4.00;99.90
12436;DHT22;6282;51.440;6.938;2024-03-08T05:34:57;4.10;99.90
12436;DHT22;6282;51.440;6.938;2024-03-08T05:37:24;4.10;99.90
12436;DHT22;6282;51.440;6.938;2024-03-08T05:39:51;4.10;99.90
12436;DHT22;6282;51.440;6.938;2024-03-08T05:42:19;4.10;99.90
12436;DHT22;6282;51.440;6.938;2024-03-08T05:44:46;4.00;99.90
12436;DHT22;6282;51.440;6.938;2024-03-08T05:47:14;4.80;99.90
12436;DHT22;6282;51.440;6.938;2024-03-08T05:49:42;3.90;99.90
12436;DHT22;6282;51.440;6.938;2024-03-08T05:52:09;3.80;99.90
12436;DHT22;6282;51.440;6.938;2024-03-08T05:54:36;3.40;99.90
12436;DHT22;6282;51.440;6.938;2024-03-08T05:57:03;3.30;99.90
12436;DHT22;6282;51.440;6.938;2024-03-08T05:59:32;3.30;99.90
12436;DHT22;6282;51.440;6.938;2024-03-08T06:01:58;3.30;99.90
12436;DHT22;6282;51.440;6.938;2024-03-08T06:04:26;3.40;99.90
12436;DHT22;6282;51.440;6.938;2024-03-08T06:06:54;3.50;99.90
12436;DHT22;6282;51.440;6.938;2024-03-08T06:09:23;3.60;99.90
12436;DHT22;6282;51.440;6.938;2024-03-08T06:11:50;3.60;99.90
12436;DHT22;6282;51.440;6.938;2024-03-08T06:14:16;3.60;99.90
12436;DHT22;6282;51.440;6.938;2024-03-08T06:16:44;3.70;99.90
12436;DHT22;6282;51.440;6.938;2024-03-08T06:19:11;3.90;99.90
12436;DHT22;6282;51.440;6.938;2024-03-08T06:21:39;3.70;99.90
12436;DHT22;6282;51.440;6.938;2024-03-08T06:24:07;3.80;99.90
12436;DHT22;6282;51.440;6.938;2024-03-08T06:26:33;4.10;99.90
12436;DHT22;6282;51.440;6.938;2024-03-08T06:29:01;4.10;99.90
12436;DHT22;6282;51.440;6.938;2024-03-08T06:31:28;4.00;99.90
12436;DHT22;6282;51.440;6.938;2024-03-08T06:33:55;4.10;99.90
12436;DHT22;6282;51.440;6.938;2024-03-08T06:36:21;4.10;99.90
12436;DHT22;6282;51.440;6.938;2024-03-08T06:38:50;3.90;99.90
12436;DHT22;6282;51.440;6.938;2024-03-08T06:41:20;3.90;99.90
12436;DHT22;6282;51.440;6.938;2024-03-08T06:43:47;3.80;99.90
12436;DHT22;6282;51.440;6.938;2024-03-08T06:46:17;3.70;99.90
12436;DHT22;6282;51.440;6.938;2024-03-08T06:48:46;3.80;99.90
12436;DHT22;6282;51.440;6.938;2024-03-08T06:51:12;4.10;99.90
12436;DHT22;6282;51.440;6.938;2024-03-08T06:53:39;4.30;99.90
12436;DHT22;6282;51.440;6.938;2024-03-08T06:56:08;4.50;99.90
12436;DHT22;6282;51.440;6.938;2024-03-08T06:58:34;4.30;99.90
12436;DHT22;6282;51.440;6.938;2024-03-08T07:01:01;4.40;99.90
12436;DHT22;6282;51.440;6.938;2024-03-08T07:03:29;4.80;99.90
12436;DHT22;6282;51.440;6.938;2024-03-08T07:05:57;4.80;99.90
12436;DHT22;6282;51.440;6.938;2024-03-08T07:08:24;4.70;99.90
12436;DHT22;6282;51.440;6.938;2024-03-08T07:10:52;4.70;99.90
12436;DHT22;6282;51.440;6.938;2024-03-08T07:13:20;4.80;99.90
12436;DHT22;6282;51.440;6.938;2024-03-08T07:15:47;4.90;99.90
12436;DHT22;6282;51.440;6.938;2024-03-08T07:18:14;4.90;99.90
12436;DHT22;6282;51.440;6.938;2024-03-08T07:20:41;4.90;99.90
12436;DHT22;6282;51.440;6.938;2024-03-08T07:23:08;5.10;99.90
12436;DHT22;6282;51.440;6.938;2024-03-08T07:25:36;5.20;99.90
12436;DHT22;6282;51.440;6.938;2024-03-08T07:28:04;5.60;99.90
12436;DHT22;6282;51.440;6.938;2024-03-08T07:30:33;5.40;99.90
12436;DHT22;6282;51.440;6.938;2024-03-08T07:33:17;5.20;99.90
12436;DHT22;6282;51.440;6.938;2024-03-08T07:35:44;5.80;99.90
12436;DHT22;6282;51.440;6.938;2024-03-08T07:38:12;6.60;99.90
12436;DHT22;6282;51.440;6.938;2024-03-08T07:40:40;7.60;99.90
12436;DHT22;6282;51.440;6.938;2024-03-08T07:43:10;8.40;99.90
12436;DHT22;6282;51.440;6.938;2024-03-08T07:45:38;9.50;99.90
12436;DHT22;6282;51.440;6.938;2024-03-08T07:48:06;9.80;99.90
12436;DHT22;6282;51.440;6.938;2024-03-08T07:50:36;10.20;99.90
12436;DHT22;6282;51.440;6.938;2024-03-08T07:53:03;10.20;99.90
12436;DHT22;6282;51.440;6.938;2024-03-08T07:55:31;10.60;99.90
12436;DHT22;6282;51.440;6.938;2024-03-08T07:57:58;10.60;99.90
12436;DHT22;6282;51.440;6.938;2024-03-08T08:00:25;11.10;99.90
12436;DHT22;6282;51.440;6.938;2024-03-08T08:02:54;11.20;99.90
12436;DHT22;6282;51.440;6.938;2024-03-08T08:05:21;10.90;99.90
12436;DHT22;6282;51.440;6.938;2024-03-08T08:07:48;10.80;99.90
12436;DHT22;6282;51.440;6.938;2024-03-08T08:10:16;11.10;99.90
12436;DHT22;6282;51.440;6.938;2024-03-08T08:12:44;11.70;99.90
12436;DHT22;6282;51.440;6.938;2024-03-08T08:15:11;12.30;99.90
12436;DHT22;6282;51.440;6.938;2024-03-08T08:17:40;12.30;99.90
12436;DHT22;6282;51.440;6.938;2024-03-08T08:20:10;12.10;99.90
12436;DHT22;6282;51.440;6.938;2024-03-08T08:22:37;12.10;99.90
12436;DHT22;6282;51.440;6.938;2024-03-08T08:25:05;12.10;99.90
12436;DHT22;6282;51.440;6.938;2024-03-08T08:27:32;12.30;99.90
12436;DHT22;6282;51.440;6.938;2024-03-08T08:29:59;12.80;99.90
12436;DHT22;6282;51.440;6.938;2024-03-08T08:32:26;13.10;99.90
12436;DHT22;6282;51.440;6.938;2024-03-08T08:34:53;13.60;99.90
12436;DHT22;6282;51.440;6.938;2024-03-08T08:37:21;13.80;99.90
12436;DHT22;6282;51.440;6.938;2024-03-08T08:39:49;13.90;99.90
12436;DHT22;6282;51.440;6.938;2024-03-08T08:42:16;13.80;99.90
12436;DHT22;6282;51.440;6.938;2024-03-08T08:44:43;14.20;99.90
12436;DHT22;6282;51.440;6.938;2024-03-08T08:47:10;14.20;99.90
12436;DHT22;6282;51.440;6.938;2024-03-08T08:49:37;13.90;99.90
12436;DHT22;6282;51.440;6.938;2024-03-08T08:52:04;13.90;99.90
12436;DHT22;6282;51.440;6.938;2024-03-08T08:54:32;13.70;99.90
12436;DHT22;6282;51.440;6.938;2024-03-08T08:56:59;13.70;99.90
12436;DHT22;6282;51.440;6.938;2024-03-08T08:59:26;13.80;99.90
12436;DHT22;6282;51.440;6.938;2024-03-08T09:01:53;13.80;99.90
12436;DHT22;6282;51.440;6.938;2024-03-08T09:04:20;13.20;99.90
12436;DHT22;6282;51.440;6.938;2024-03-08T09:06:48;12.80;99.90
12436;DHT22;6282;51.440;6.938;2024-03-08T09:09:15;13.20;99.90
12436;DHT22;6282;51.440;6.938;2024-03-08T09:11:44;13.30;99.90
12436;DHT22;6282;51.440;6.938;2024-03-08T09:14:11;13.20;99.90
12436;DHT22;6282;51.440;6.938;2024-03-08T09:16:38;13.60;99.90
12436;DHT22;6282;51.440;6.938;2024-03-08T09:19:05;13.50;99.90
12436;DHT22;6282;51.440;6.938;2024-03-08T09:21:32;13.20;99.90
12436;DHT22;6282;51.440;6.938;2024-03-08T09:24:00;12.60;99.90
12436;DHT22;6282;51.440;6.938;2024-03-08T09:26:27;12.40;99.90
12436;DHT22;6282;51.440;6.938;2024-03-08T09:28:55;12.30;99.90
12436;DHT22;6282;51.440;6.938;2024-03-08T09:31:21;11.90;99.90
12436;DHT22;6282;51.440;6.938;2024-03-08T09:33:48;11.90;99.90
12436;DHT22;6282;51.440;6.938;2024-03-08T09:36:16;11.70;99.90
12436;DHT22;6282;51.440;6.938;2024-03-08T09:38:42;11.40;99.90
12436;DHT22;6282;51.440;6.938;2024-03-08T09:41:09;10.70;99.90
12436;DHT22;6282;51.440;6.938;2024-03-08T09:43:38;10.40;99.90
12436;DHT22;6282;51.440;6.938;2024-03-08T09:46:07;10.30;99.90
12436;DHT22;6282;51.440;6.938;2024-03-08T09:48:35;9.80;99.90
12436;DHT22;6282;51.440;6.938;2024-03-08T09:51:02;9.40;99.90
12436;DHT22;6282;51.440;6.938;2024-03-08T09:53:29;9.20;99.90
12436;DHT22;6282;51.440;6.938;2024-03-08T09:55:56;9.30;99.90
12436;DHT22;6282;51.440;6.938;2024-03-08T09:58:24;9.10;99.90
12436;DHT22;6282;51.440;6.938;2024-03-08T10:01:19;9.00;99.90
12436;DHT22;6282;51.440;6.938;2024-03-08T10:03:47;9.00;99.90
12436;DHT22;6282;51.440;6.938;2024-03-08T10:06:14;9.00;99.90
12436;DHT22;6282;51.440;6.938;2024-03-08T10:08:41;9.00;99.90
12436;DHT22;6282;51.440;6.938;2024-03-08T10:11:08;8.90;99.90
12436;DHT22;6282;51.440;6.938;2024-03-08T10:13:37;8.80;99.90
12436;DHT22;6282;51.440;6.938;2024-03-08T10:16:06;8.80;99.90
12436;DHT22;6282;51.440;6.938;2024-03-08T10:18:34;8.70;99.90
12436;DHT22;6282;51.440;6.938;2024-03-08T10:21:05;8.80;99.90
12436;DHT22;6282;51.440;6.938;2024-03-08T10:23:33;8.80;99.90
12436;DHT22;6282;51.440;6.938;2024-03-08T10:26:10;8.80;99.90
12436;DHT22;6282;51.440;6.938;2024-03-08T10:28:40;8.90;99.90
12436;DHT22;6282;51.440;6.938;2024-03-08T10:31:07;9.00;99.90
12436;DHT22;6282;51.440;6.938;2024-03-08T10:33:36;9.00;99.90
12436;DHT22;6282;51.440;6.938;2024-03-08T10:36:07;8.90;99.90
12436;DHT22;6282;51.440;6.938;2024-03-08T10:38:36;9.10;99.90
12436;DHT22;6282;51.440;6.938;2024-03-08T10:41:05;9.20;99.90
12436;DHT22;6282;51.440;6.938;2024-03-08T10:43:36;9.40;99.90
12436;DHT22;6282;51.440;6.938;2024-03-08T10:46:15;9.30;99.90
12436;DHT22;6282;51.440;6.938;2024-03-08T10:48:47;9.50;99.90
12436;DHT22;6282;51.440;6.938;2024-03-08T10:51:16;9.40;99.90
12436;DHT22;6282;51.440;6.938;2024-03-08T10:53:44;9.60;99.90
12436;DHT22;6282;51.440;6.938;2024-03-08T10:56:12;9.40;99.90
12436;DHT22;6282;51.440;6.938;2024-03-08T10:58:40;9.40;99.90
12436;DHT22;6282;51.440;6.938;2024-03-08T11:01:07;9.50;99.90
12436;DHT22;6282;51.440;6.938;2024-03-08T11:03:47;9.50;99.90
12436;DHT22;6282;51.440;6.938;2024-03-08T11:06:19;9.60;99.90
12436;DHT22;6282;51.440;6.938;2024-03-08T11:08:49;9.60;99.90
12436;DHT22;6282;51.440;6.938;2024-03-08T11:11:34;9.80;99.90
12436;DHT22;6282;51.440;6.938;2024-03-08T11:14:01;9.90;99.90
12436;DHT22;6282;51.440;6.938;2024-03-08T11:16:41;10.00;99.90
12436;DHT22;6282;51.440;6.938;2024-03-08T11:19:26;10.10;99.90
12436;DHT22;6282;51.440;6.938;2024-03-08T11:22:01;10.20;99.90
12436;DHT22;6282;51.440;6.938;2024-03-08T11:24:36;10.10;99.90
12436;DHT22;6282;51.440;6.938;2024-03-08T11:27:05;10.10;99.90
12436;DHT22;6282;51.440;6.938;2024-03-08T11:29:36;9.80;99.90
12436;DHT22;6282;51.440;6.938;2024-03-08T11:32:08;9.70;99.90
12436;DHT22;6282;51.440;6.938;2024-03-08T11:34:37;9.90;99.90
12436;DHT22;6282;51.440;6.938;2024-03-08T11:37:05;9.90;99.90
12436;DHT22;6282;51.440;6.938;2024-03-08T11:39:35;10.00;99.90
12436;DHT22;6282;51.440;6.938;2024-03-08T11:42:04;10.10;99.90
12436;DHT22;6282;51.440;6.938;2024-03-08T11:44:30;10.20;99.90
12436;DHT22;6282;51.440;6.938;2024-03-08T11:46:58;10.00;99.90
12436;DHT22;6282;51.440;6.938;2024-03-08T11:49:25;9.90;99.90
12436;DHT22;6282;51.440;6.938;2024-03-08T11:51:53;9.90;99.90
12436;DHT22;6282;51.440;6.938;2024-03-08T11:54:21;9.90;99.90
12436;DHT22;6282;51.440;6.938;2024-03-08T11:56:51;10.00;99.90
12436;DHT22;6282;51.440;6.938;2024-03-08T11:59:19;10.10;99.90
12436;DHT22;6282;51.440;6.938;2024-03-08T12:02:01;10.20;99.90
12436;DHT22;6282;51.440;6.938;2024-03-08T12:04:28;10.10;99.90
12436;DHT22;6282;51.440;6.938;2024-03-08T12:06:59;10.20;99.90
12436;DHT22;6282;51.440;6.938;2024-03-08T12:09:27;10.10;99.90
12436;DHT22;6282;51.440;6.938;2024-03-08T12:11:54;10.10;99.90
12436;DHT22;6282;51.440;6.938;2024-03-08T12:14:21;10.20;99.90
12436;DHT22;6282;51.440;6.938;2024-03-08T12:16:48;10.20;99.90
12436;DHT22;6282;51.440;6.938;2024-03-08T12:19:16;10.20;99.90
12436;DHT22;6282;51.440;6.938;2024-03-08T12:21:43;10.50;99.90
12436;DHT22;6282;51.440;6.938;2024-03-08T12:24:16;10.70;99.90
12436;DHT22;6282;51.440;6.938;2024-03-08T12:26:45;10.70;99.90
12436;DHT22;6282;51.440;6.938;2024-03-08T12:29:17;10.70;99.90
12436;DHT22;6282;51.440;6.938;2024-03-08T12:31:46;10.70;99.90
12436;DHT22;6282;51.440;6.938;2024-03-08T12:34:13;10.90;99.90
12436;DHT22;6282;51.440;6.938;2024-03-08T12:36:45;11.10;99.90
12436;DHT22;6282;51.440;6.938;2024-03-08T12:39:14;11.10;99.90
12436;DHT22;6282;51.440;6.938;2024-03-08T12:41:42;11.30;99.90
12436;DHT22;6282;51.440;6.938;2024-03-08T12:44:09;11.10;99.90
12436;DHT22;6282;51.440;6.938;2024-03-08T12:46:37;11.10;99.90
12436;DHT22;6282;51.440;6.938;2024-03-08T12:49:07;11.20;99.90
12436;DHT22;6282;51.440;6.938;2024-03-08T12:51:33;11.20;99.90
12436;DHT22;6282;51.440;6.938;2024-03-08T12:54:01;11.30;99.90
12436;DHT22;6282;51.440;6.938;2024-03-08T12:56:32;11.20;99.90
12436;DHT22;6282;51.440;6.938;2024-03-08T12:58:59;11.30;99.90
12436;DHT22;6282;51.440;6.938;2024-03-08T13:01:26;11.30;99.90
12436;DHT22;6282;51.440;6.938;2024-03-08T13:03:53;11.30;99.90
12436;DHT22;6282;51.440;6.938;2024-03-08T13:06:21;11.40;99.90
12436;DHT22;6282;51.440;6.938;2024-03-08T13:08:50;11.30;99.90
12436;DHT22;6282;51.440;6.938;2024-03-08T13:11:17;11.30;99.90
12436;DHT22;6282;51.440;6.938;2024-03-08T13:13:46;11.40;99.90
12436;DHT22;6282;51.440;6.938;2024-03-08T13:16:13;11.50;99.90
12436;DHT22;6282;51.440;6.938;2024-03-08T13:18:43;11.40;99.90
12436;DHT22;6282;51.440;6.938;2024-03-08T13:21:10;11.50;99.90
12436;DHT22;6282;51.440;6.938;2024-03-08T13:23:40;11.70;99.90
12436;DHT22;6282;51.440;6.938;2024-03-08T13:26:11;11.70;99.90
12436;DHT22;6282;51.440;6.938;2024-03-08T13:28:40;11.80;99.90
12436;DHT22;6282;51.440;6.938;2024-03-08T13:31:09;11.70;99.90
12436;DHT22;6282;51.440;6.938;2024-03-08T13:33:36;11.80;99.90
12436;DHT22;6282;51.440;6.938;2024-03-08T13:36:05;11.60;99.90
12436;DHT22;6282;51.440;6.938;2024-03-08T13:38:40;11.70;99.90
12436;DHT22;6282;51.440;6.938;2024-03-08T13:41:08;11.80;99.90
12436;DHT22;6282;51.440;6.938;2024-03-08T13:43:34;11.80;99.90
12436;DHT22;6282;51.440;6.938;2024-03-08T13:46:03;11.80;99.90
12436;DHT22;6282;51.440;6.938;2024-03-08T13:48:31;11.90;99.90
12436;DHT22;6282;51.440;6.938;2024-03-08T13:50:58;11.90;99.90
12436;DHT22;6282;51.440;6.938;2024-03-08T13:53:25;12.00;99.90
12436;DHT22;6282;51.440;6.938;2024-03-08T13:55:52;12.10;99.90
12436;DHT22;6282;51.440;6.938;2024-03-08T13:58:19;12.10;99.90
12436;DHT22;6282;51.440;6.938;2024-03-08T14:00:46;12.20;99.90
12436;DHT22;6282;51.440;6.938;2024-03-08T14:03:13;12.10;99.90
12436;DHT22;6282;51.440;6.938;2024-03-08T14:05:41;12.20;99.90
12436;DHT22;6282;51.440;6.938;2024-03-08T14:08:08;12.10;99.90
12436;DHT22;6282;51.440;6.938;2024-03-08T14:10:37;12.10;99.90
12436;DHT22;6282;51.440;6.938;2024-03-08T14:13:05;12.10;99.90
12436;DHT22;6282;51.440;6.938;2024-03-08T14:15:32;12.20;99.90
12436;DHT22;6282;51.440;6.938;2024-03-08T14:18:00;12.30;99.90
12436;DHT22;6282;51.440;6.938;2024-03-08T14:20:27;12.20;99.90
12436;DHT22;6282;51.440;6.938;2024-03-08T14:22:55;12.20;99.90
12436;DHT22;6282;51.440;6.938;2024-03-08T14:25:22;12.00;99.90
12436;DHT22;6282;51.440;6.938;2024-03-08T14:27:50;12.00;99.90
12436;DHT22;6282;51.440;6.938;2024-03-08T14:30:19;12.00;99.90
12436;DHT22;6282;51.440;6.938;2024-03-08T14:33:00;12.00;99.90
12436;DHT22;6282;51.440;6.938;2024-03-08T14:35:28;12.00;99.90
12436;DHT22;6282;51.440;6.938;2024-03-08T14:37:57;12.00;99.90
12436;DHT22;6282;51.440;6.938;2024-03-08T14:40:25;12.00;99.90
12436;DHT22;6282;51.440;6.938;2024-03-08T14:42:52;12.00;99.90
12436;DHT22;6282;51.440;6.938;2024-03-08T14:45:19;12.00;99.90
12436;DHT22;6282;51.440;6.938;2024-03-08T14:47:46;12.00;99.90
12436;DHT22;6282;51.440;6.938;2024-03-08T14:50:16;12.00;99.90
12436;DHT22;6282;51.440;6.938;2024-03-08T14:52:43;12.10;99.90
12436;DHT22;6282;51.440;6.938;2024-03-08T14:55:11;12.10;99.90
12436;DHT22;6282;51.440;6.938;2024-03-08T14:57:40;12.10;99.90
12436;DHT22;6282;51.440;6.938;2024-03-08T15:00:08;12.10;99.90
12436;DHT22;6282;51.440;6.938;2024-03-08T15:02:42;12.10;99.90
12436;DHT22;6282;51.440;6.938;2024-03-08T15:05:09;12.00;99.90
12436;DHT22;6282;51.440;6.938;2024-03-08T15:07:37;11.90;99.90
12436;DHT22;6282;51.440;6.938;2024-03-08T15:10:06;11.90;99.90
12436;DHT22;6282;51.440;6.938;2024-03-08T15:12:37;11.90;99.90
12436;DHT22;6282;51.440;6.938;2024-03-08T15:15:07;11.70;99.90
12436;DHT22;6282;51.440;6.938;2024-03-08T15:17:35;11.70;99.90
12436;DHT22;6282;51.440;6.938;2024-03-08T15:20:06;11.70;99.90
12436;DHT22;6282;51.440;6.938;2024-03-08T15:22:41;11.60;99.90
12436;DHT22;6282;51.440;6.938;2024-03-08T15:25:08;11.60;99.90
12436;DHT22;6282;51.440;6.938;2024-03-08T15:27:38;11.50;99.90
12436;DHT22;6282;51.440;6.938;2024-03-08T15:30:07;11.50;99.90
12436;DHT22;6282;51.440;6.938;2024-03-08T15:32:39;11.40;99.90
12436;DHT22;6282;51.440;6.938;2024-03-08T15:35:07;11.40;99.90
12436;DHT22;6282;51.440;6.938;2024-03-08T15:37:39;11.40;99.90
12436;DHT22;6282;51.440;6.938;2024-03-08T15:40:09;11.40;99.90
12436;DHT22;6282;51.440;6.938;2024-03-08T15:42:39;11.40;99.90
12436;DHT22;6282;51.440;6.938;2024-03-08T15:45:06;11.40;99.90
12436;DHT22;6282;51.440;6.938;2024-03-08T15:47:34;11.30;99.90
12436;DHT22;6282;51.440;6.938;2024-03-08T15:50:02;11.40;99.90
12436;DHT22;6282;51.440;6.938;2024-03-08T15:52:30;11.40;99.90
12436;DHT22;6282;51.440;6.938;2024-03-08T15:54:57;11.30;99.90
12436;DHT22;6282;51.440;6.938;2024-03-08T15:57:23;11.30;99.90
12436;DHT22;6282;51.440;6.938;2024-03-08T15:59:52;11.20;99.90
12436;DHT22;6282;51.440;6.938;2024-03-08T16:02:18;11.20;99.90